createdAt,value
2023-03-05T00:01:42.913Z,1.98
2023-03-05T00:04:11.849Z,1.10
2023-03-05T00:06:39.099Z,1.02
2023-03-05T00:09:06.393Z,1.50
2023-03-05T00:11:33.923Z,1.90
2023-03-05T00:14:01.911Z,1.57
2023-03-05T00:16:29.304Z,1.33
2023-03-05T00:18:56.726Z,1.50
2023-03-05T00:21:28.054Z,1.10
2023-03-05T00:23:55.418Z,1.45
2023-03-05T00:26:23.210Z,1.60
2023-03-05T00:28:51.847Z,1.58
2023-03-05T00:31:19.405Z,1.63
2023-03-05T00:33:46.967Z,1.80
2023-03-05T00:36:14.223Z,1.33
2023-03-05T00:38:41.456Z,1.40
2023-03-05T00:41:09.285Z,1.93
2023-03-05T00:43:36.504Z,1.50
2023-03-05T00:46:03.858Z,1.45
2023-03-05T00:48:31.129Z,1.20
2023-03-05T00:50:58.343Z,1.27
2023-03-05T00:53:25.575Z,1.40
2023-03-05T00:55:52.810Z,1.55
2023-03-05T00:58:20.030Z,1.80
2023-03-05T01:00:50.540Z,1.60
2023-03-05T01:03:18.513Z,1.30
2023-03-05T01:05:45.764Z,1.08
2023-03-05T01:08:13.077Z,1.70
2023-03-05T01:10:40.466Z,2.00
2023-03-05T01:13:07.765Z,1.50
2023-03-05T01:15:34.982Z,1.45
2023-03-05T01:18:02.219Z,2.30
2023-03-05T01:20:29.576Z,1.65
2023-03-05T01:22:58.934Z,1.30
2023-03-05T01:25:26.238Z,1.90
2023-03-05T01:27:53.564Z,1.48
2023-03-05T01:30:20.930Z,1.48
2023-03-05T01:32:48.189Z,1.30
2023-03-05T01:35:19.377Z,1.80
2023-03-05T01:37:46.655Z,0.88
2023-03-05T01:40:14.382Z,1.40
2023-03-05T01:42:45.340Z,1.65
2023-03-05T01:45:13.624Z,1.70
2023-03-05T01:47:40.910Z,1.52
2023-03-05T01:50:08.642Z,1.42
2023-03-05T01:52:36.169Z,1.48
2023-03-05T01:55:04.438Z,1.60
2023-03-05T01:57:44.224Z,1.50
2023-03-05T02:00:18.565Z,2.50
2023-03-05T02:02:45.987Z,2.25
2023-03-05T02:05:14.684Z,1.73
2023-03-05T02:07:42.995Z,2.22
2023-03-05T02:10:17.472Z,1.90
2023-03-05T02:12:44.714Z,2.50
2023-03-05T02:15:12.633Z,2.80
2023-03-05T02:17:40.031Z,1.92
2023-03-05T02:20:11.355Z,1.42
2023-03-05T02:22:38.592Z,1.70
2023-03-05T02:25:25.121Z,1.60
2023-03-05T02:27:53.641Z,1.70
2023-03-05T02:30:20.896Z,2.10
2023-03-05T02:32:48.263Z,2.22
2023-03-05T02:35:15.537Z,1.60
2023-03-05T02:37:43.204Z,2.00
2023-03-05T02:40:11.118Z,1.92
2023-03-05T02:42:38.379Z,2.00
2023-03-05T02:45:06.066Z,2.20
2023-03-05T02:47:33.313Z,1.52
2023-03-05T02:50:00.581Z,1.73
2023-03-05T02:52:28.307Z,1.50
2023-03-05T02:54:55.508Z,1.90
2023-03-05T02:57:22.928Z,1.87
2023-03-05T02:59:50.157Z,2.42
2023-03-05T03:02:17.384Z,1.92
2023-03-05T03:04:45.023Z,1.60
2023-03-05T03:07:12.780Z,1.40
2023-03-05T03:09:40.079Z,1.25
2023-03-05T03:12:07.521Z,1.95
2023-03-05T03:14:39.128Z,1.92
2023-03-05T03:17:16.309Z,1.67
2023-03-05T03:19:43.651Z,1.42
2023-03-05T03:22:11.007Z,1.50
2023-03-05T03:24:38.420Z,1.98
2023-03-05T03:27:05.784Z,2.00
2023-03-05T03:29:33.019Z,2.03
2023-03-05T03:32:00.284Z,1.30
2023-03-05T03:34:27.605Z,1.27
2023-03-05T03:36:54.962Z,1.90
2023-03-05T03:39:22.221Z,1.80
2023-03-05T03:41:50.184Z,1.50
2023-03-05T03:44:20.721Z,1.38
2023-03-05T03:46:48.094Z,1.30
2023-03-05T03:49:16.317Z,1.53
2023-03-05T03:51:43.595Z,1.47
2023-03-05T03:54:10.845Z,2.20
2023-03-05T03:56:38.076Z,1.30
2023-03-05T03:59:05.278Z,1.57
2023-03-05T04:01:32.589Z,1.90
2023-03-05T04:04:00.132Z,1.13
2023-03-05T04:06:27.568Z,1.63
2023-03-05T04:08:54.861Z,1.48
2023-03-05T04:11:22.088Z,1.45
2023-03-05T04:13:49.352Z,1.58
2023-03-05T04:16:16.880Z,1.45
2023-03-05T04:18:44.216Z,1.92
2023-03-05T04:21:11.500Z,1.70
2023-03-05T04:23:38.869Z,1.25
2023-03-05T04:26:06.146Z,1.38
2023-03-05T04:28:33.400Z,1.60
2023-03-05T04:31:00.654Z,1.40
2023-03-05T04:33:27.903Z,1.45
2023-03-05T04:35:55.249Z,1.42
2023-03-05T04:38:22.497Z,2.60
2023-03-05T04:40:49.689Z,2.03
2023-03-05T04:43:16.901Z,2.45
2023-03-05T04:45:44.313Z,1.60
2023-03-05T04:48:11.776Z,1.30
2023-03-05T04:50:39.059Z,1.85
2023-03-05T04:53:06.336Z,2.28
2023-03-05T04:55:33.552Z,1.38
2023-03-05T04:58:00.827Z,1.48
2023-03-05T05:00:28.080Z,2.03
2023-03-05T05:02:55.350Z,1.40
2023-03-05T05:05:23.814Z,1.67
2023-03-05T05:07:51.247Z,2.17
2023-03-05T05:10:18.464Z,1.57
2023-03-05T05:12:45.723Z,2.07
2023-03-05T05:15:13.198Z,1.45
2023-03-05T05:17:40.407Z,1.15
2023-03-05T05:20:08.328Z,1.60
2023-03-05T05:22:35.768Z,1.30
2023-03-05T05:25:03.164Z,1.95
2023-03-05T05:27:30.497Z,1.33
2023-03-05T05:29:57.727Z,1.20
2023-03-05T05:32:25.330Z,1.40
2023-03-05T05:34:59.152Z,2.13
2023-03-05T05:37:26.545Z,1.13
2023-03-05T05:39:53.807Z,1.70
2023-03-05T05:42:21.519Z,1.50
2023-03-05T05:44:48.714Z,1.40
2023-03-05T05:47:16.317Z,2.10
2023-03-05T05:49:43.521Z,1.63
2023-03-05T05:52:10.750Z,1.50
2023-03-05T05:54:38.012Z,1.47
2023-03-05T05:57:05.221Z,1.10
2023-03-05T05:59:32.614Z,1.60
2023-03-05T06:02:00.261Z,1.30
2023-03-05T06:04:27.552Z,1.38
2023-03-05T06:06:54.788Z,2.60
2023-03-05T06:09:22.027Z,1.60
2023-03-05T06:11:50.383Z,1.70
2023-03-05T06:14:17.616Z,1.30
2023-03-05T06:16:44.926Z,2.83
2023-03-05T06:19:15.256Z,2.00
2023-03-05T06:21:43.558Z,1.70
2023-03-05T06:24:11.081Z,1.85
2023-03-05T06:26:38.334Z,1.58
2023-03-05T06:29:05.581Z,1.30
2023-03-05T06:31:32.925Z,1.90
2023-03-05T06:34:04.081Z,1.25
2023-03-05T06:36:31.537Z,1.40
2023-03-05T06:38:58.946Z,1.45
2023-03-05T06:41:26.985Z,1.40
2023-03-05T06:43:54.276Z,1.38
2023-03-05T06:46:22.677Z,1.90
2023-03-05T06:48:50.044Z,1.38
2023-03-05T06:51:18.078Z,1.25
2023-03-05T06:53:47.221Z,1.10
2023-03-05T06:56:16.733Z,1.63
2023-03-05T06:58:44.371Z,1.98
2023-03-05T07:01:11.671Z,1.50
2023-03-05T07:03:39.044Z,1.30
2023-03-05T07:06:06.884Z,1.17
2023-03-05T07:08:34.158Z,1.15
2023-03-05T07:11:01.533Z,1.40
2023-03-05T07:13:28.817Z,1.20
2023-03-05T07:15:56.103Z,1.58
2023-03-05T07:18:23.385Z,1.13
2023-03-05T07:20:50.646Z,1.70
2023-03-05T07:23:17.878Z,1.20
2023-03-05T07:25:45.157Z,1.73
2023-03-05T07:28:12.502Z,1.27
2023-03-05T07:30:39.726Z,1.33
2023-03-05T07:33:06.974Z,1.15
2023-03-05T07:35:34.256Z,1.00
2023-03-05T07:38:01.487Z,1.35
2023-03-05T07:40:28.881Z,1.40
2023-03-05T07:42:56.156Z,1.47
2023-03-05T07:45:23.425Z,1.17
2023-03-05T07:47:52.549Z,1.40
2023-03-05T07:50:20.051Z,8.50
2023-03-05T07:52:47.248Z,2.00
2023-03-05T07:55:14.529Z,3.22
2023-03-05T07:57:41.751Z,1.55
2023-03-05T08:00:09.552Z,4.57
2023-03-05T08:02:36.895Z,1.75
2023-03-05T08:05:04.220Z,1.58
2023-03-05T08:07:31.435Z,1.00
2023-03-05T08:09:58.694Z,1.40
2023-03-05T08:12:25.946Z,1.70
2023-03-05T08:14:53.202Z,1.63
2023-03-05T08:17:20.407Z,1.98
2023-03-05T08:19:47.654Z,1.27
2023-03-05T08:22:16.337Z,0.75
2023-03-05T08:24:44.121Z,1.98
2023-03-05T08:27:11.361Z,1.00
2023-03-05T08:29:38.604Z,1.52
2023-03-05T08:32:06.088Z,1.35
2023-03-05T08:34:33.324Z,1.40
2023-03-05T08:37:00.607Z,1.15
2023-03-05T08:39:30.131Z,0.77
2023-03-05T08:41:57.374Z,1.20
2023-03-05T08:44:24.663Z,0.90
2023-03-05T08:46:52.076Z,1.48
2023-03-05T08:49:19.341Z,1.23
2023-03-05T08:51:46.643Z,0.93
2023-03-05T08:54:13.843Z,1.05
2023-03-05T08:56:41.212Z,0.80
2023-03-05T08:59:08.702Z,1.00
2023-03-05T09:01:35.983Z,0.90
2023-03-05T09:04:04.026Z,1.00
2023-03-05T09:06:31.308Z,1.08
2023-03-05T09:08:58.550Z,1.45
2023-03-05T09:11:25.831Z,1.20
2023-03-05T09:13:53.101Z,1.20
2023-03-05T09:16:20.770Z,0.90
2023-03-05T09:18:48.179Z,1.23
2023-03-05T09:21:16.314Z,0.65
2023-03-05T09:23:43.970Z,1.30
2023-03-05T09:26:12.265Z,1.03
2023-03-05T09:28:40.050Z,0.73
2023-03-05T09:31:08.000Z,0.70
2023-03-05T09:33:35.551Z,1.10
2023-03-05T09:36:03.042Z,0.35
2023-03-05T09:38:30.435Z,0.20
2023-03-05T09:41:05.588Z,1.52
2023-03-05T09:43:32.818Z,0.50
2023-03-05T09:46:03.364Z,0.20
2023-03-05T09:48:44.629Z,0.40
2023-03-05T09:51:13.715Z,0.38
2023-03-05T09:53:45.233Z,0.38
2023-03-05T09:56:25.177Z,0.47
2023-03-05T09:58:57.273Z,0.57
2023-03-05T10:01:29.133Z,0.60
2023-03-05T10:03:57.354Z,0.50
2023-03-05T10:06:24.716Z,0.90
2023-03-05T10:08:56.068Z,0.40
2023-03-05T10:11:27.705Z,0.60
2023-03-05T10:13:55.048Z,1.05
2023-03-05T10:16:32.364Z,0.40
2023-03-05T10:19:02.878Z,0.50
2023-03-05T10:21:36.196Z,0.47
2023-03-05T10:24:22.254Z,1.35
2023-03-05T10:26:55.686Z,1.27
2023-03-05T10:29:32.225Z,0.65
2023-03-05T10:32:18.650Z,0.77
2023-03-05T10:35:04.663Z,1.17
2023-03-05T10:37:38.782Z,0.40
2023-03-05T10:40:10.033Z,0.40
2023-03-05T10:42:37.228Z,0.50
2023-03-05T10:45:18.628Z,0.28
2023-03-05T10:47:56.547Z,0.30
2023-03-05T10:50:24.890Z,0.38
2023-03-05T10:52:53.637Z,0.30
2023-03-05T10:55:21.950Z,0.50
2023-03-05T10:57:49.255Z,0.35
2023-03-05T11:00:27.746Z,0.45
2023-03-05T11:03:01.950Z,0.57
2023-03-05T11:05:32.210Z,0.47
2023-03-05T11:07:59.450Z,0.50
2023-03-05T11:10:26.682Z,0.50
2023-03-05T11:12:56.550Z,0.43
2023-03-05T11:15:26.498Z,0.52
2023-03-05T11:18:07.613Z,0.50
2023-03-05T11:20:35.468Z,0.30
2023-03-05T11:23:18.252Z,0.47
2023-03-05T11:25:57.694Z,0.30
2023-03-05T11:28:34.617Z,0.32
2023-03-05T11:31:05.029Z,0.32
2023-03-05T11:33:32.366Z,0.45
2023-03-05T11:36:18.089Z,0.38
2023-03-05T11:39:11.856Z,0.20
2023-03-05T11:41:52.545Z,0.30
2023-03-05T11:44:24.150Z,0.45
2023-03-05T11:46:52.208Z,0.30
2023-03-05T11:49:20.760Z,0.45
2023-03-05T11:51:57.286Z,0.40
2023-03-05T11:54:27.680Z,0.50
2023-03-05T11:56:54.986Z,0.60
2023-03-05T11:59:27.757Z,0.30
2023-03-05T12:01:55.487Z,0.45
2023-03-05T12:04:22.753Z,0.38
2023-03-05T12:06:50.922Z,0.60
2023-03-05T12:09:23.870Z,0.20
2023-03-05T12:11:52.486Z,0.68
2023-03-05T12:14:27.693Z,0.20
2023-03-05T12:17:01.370Z,0.65
2023-03-05T12:19:41.286Z,0.50
2023-03-05T12:22:34.952Z,0.80
2023-03-05T12:25:21.549Z,0.63
2023-03-05T12:27:49.072Z,0.43
2023-03-05T12:30:34.784Z,0.30
2023-03-05T12:33:02.486Z,0.30
2023-03-05T12:35:29.914Z,0.60
2023-03-05T12:37:57.822Z,2.53
2023-03-05T12:40:29.063Z,4.93
2023-03-05T12:43:07.401Z,10.20
2023-03-05T12:45:34.773Z,2.92
2023-03-05T12:48:02.091Z,2.25
2023-03-05T12:50:29.639Z,2.80
2023-03-05T12:53:13.284Z,2.45
2023-03-05T12:55:45.408Z,2.15
2023-03-05T12:58:14.159Z,0.63
2023-03-05T13:00:43.317Z,5.53
2023-03-05T13:03:12.395Z,0.52
2023-03-05T13:05:39.738Z,0.82
2023-03-05T13:08:10.900Z,1.00
2023-03-05T13:10:38.169Z,0.90
2023-03-05T13:13:05.480Z,0.40
2023-03-05T13:15:32.770Z,1.25
2023-03-05T13:18:03.234Z,1.20
2023-03-05T13:20:38.451Z,1.20
2023-03-05T13:23:08.753Z,1.02
2023-03-05T13:25:36.039Z,0.40
2023-03-05T13:28:07.586Z,0.52
2023-03-05T13:30:34.952Z,0.63
2023-03-05T13:33:05.757Z,0.35
2023-03-05T13:35:33.206Z,0.35
2023-03-05T13:38:00.888Z,0.20
2023-03-05T13:40:31.482Z,0.40
2023-03-05T13:43:16.981Z,0.40
2023-03-05T13:45:44.571Z,0.35
2023-03-05T13:48:16.707Z,0.50
2023-03-05T13:50:44.026Z,0.40
2023-03-05T13:53:18.171Z,0.20
2023-03-05T13:55:45.995Z,0.60
2023-03-05T13:58:36.492Z,0.30
2023-03-05T14:01:13.230Z,0.70
2023-03-05T14:03:40.440Z,0.60
2023-03-05T14:06:11.393Z,0.80
2023-03-05T14:08:38.653Z,0.60
2023-03-05T14:11:13.184Z,0.30
2023-03-05T14:13:40.525Z,2.75
2023-03-05T14:16:09.704Z,0.70
2023-03-05T14:18:37.076Z,0.70
2023-03-05T14:21:09.514Z,1.08
2023-03-05T14:23:43.497Z,0.50
2023-03-05T14:26:28.772Z,0.75
2023-03-05T14:29:00.240Z,0.30
2023-03-05T14:31:28.083Z,1.67
2023-03-05T14:33:55.772Z,0.47
2023-03-05T14:36:27.358Z,0.40
2023-03-05T14:38:54.818Z,0.40
2023-03-05T14:41:23.038Z,0.30
2023-03-05T14:43:50.286Z,0.40
2023-03-05T14:46:17.621Z,0.50
2023-03-05T14:48:45.033Z,0.40
2023-03-05T14:51:12.304Z,0.30
2023-03-05T14:53:40.424Z,0.70
2023-03-05T14:56:12.396Z,0.38
2023-03-05T14:58:39.620Z,0.50
2023-03-05T15:01:07.543Z,0.70
2023-03-05T15:03:34.897Z,0.50
2023-03-05T15:06:02.202Z,0.40
2023-03-05T15:08:30.459Z,0.37
2023-03-05T15:10:57.758Z,0.40
2023-03-05T15:13:25.019Z,0.53
2023-03-05T15:15:52.516Z,0.40
2023-03-05T15:18:20.550Z,0.70
2023-03-05T15:20:52.977Z,0.53
2023-03-05T15:23:20.511Z,0.40
2023-03-05T15:25:47.724Z,0.40
2023-03-05T15:28:15.316Z,0.47
2023-03-05T15:30:43.995Z,0.88
2023-03-05T15:33:12.227Z,0.60
2023-03-05T15:35:39.553Z,0.50
2023-03-05T15:38:06.851Z,0.57
2023-03-05T15:40:34.083Z,0.77
2023-03-05T15:43:01.411Z,1.10
2023-03-05T15:45:31.398Z,1.00
2023-03-05T15:47:58.822Z,1.30
2023-03-05T15:50:27.055Z,1.30
2023-03-05T15:52:54.323Z,0.70
2023-03-05T15:55:21.714Z,0.82
2023-03-05T15:57:50.248Z,0.70
2023-03-05T16:00:18.641Z,0.90
2023-03-05T16:02:45.980Z,0.43
2023-03-05T16:05:13.244Z,1.40
2023-03-05T16:07:41.391Z,3.50
2023-03-05T16:10:08.953Z,7.18
2023-03-05T16:12:40.707Z,20.92
2023-03-05T16:15:09.482Z,13.60
2023-03-05T16:17:36.794Z,11.82
2023-03-05T16:20:05.223Z,22.52
2023-03-05T16:22:32.773Z,22.77
2023-03-05T16:25:01.260Z,11.00
2023-03-05T16:27:28.830Z,8.20
2023-03-05T16:29:56.339Z,8.07
2023-03-05T16:32:23.651Z,18.75
2023-03-05T16:34:50.971Z,17.88
2023-03-05T16:37:22.102Z,7.03
2023-03-05T16:39:51.245Z,17.13
2023-03-05T16:42:18.820Z,14.00
2023-03-05T16:44:47.378Z,10.00
2023-03-05T16:47:14.634Z,10.05
2023-03-05T16:49:41.993Z,5.05
2023-03-05T16:52:20.850Z,2.50
2023-03-05T16:54:48.251Z,2.00
2023-03-05T16:57:15.622Z,5.10
2023-03-05T16:59:43.757Z,9.48
2023-03-05T17:02:13.231Z,4.18
2023-03-05T17:04:40.579Z,2.58
2023-03-05T17:07:08.111Z,1.30
2023-03-05T17:09:35.371Z,2.50
2023-03-05T17:12:02.665Z,1.50
2023-03-05T17:14:29.942Z,5.20
2023-03-05T17:16:57.221Z,4.97
2023-03-05T17:19:24.477Z,4.00
2023-03-05T17:21:52.400Z,2.78
2023-03-05T17:24:22.264Z,2.15
2023-03-05T17:26:50.230Z,2.10
2023-03-05T17:29:19.009Z,2.28
2023-03-05T17:31:46.796Z,2.08
2023-03-05T17:34:14.282Z,2.28
2023-03-05T17:36:41.611Z,1.60
2023-03-05T17:39:09.001Z,1.98
2023-03-05T17:41:36.218Z,1.50
2023-03-05T17:44:03.464Z,1.60
2023-03-05T17:46:30.737Z,0.98
2023-03-05T17:48:58.024Z,0.80
2023-03-05T17:51:25.280Z,1.08
2023-03-05T17:53:52.520Z,0.70
2023-03-05T17:56:23.371Z,0.82
2023-03-05T17:58:53.338Z,0.70
2023-03-05T18:01:26.722Z,0.73
2023-03-05T18:03:54.313Z,1.10
2023-03-05T18:06:21.637Z,0.52
2023-03-05T18:08:48.890Z,1.50
2023-03-05T18:11:16.416Z,1.80
2023-03-05T18:13:43.642Z,0.80
2023-03-05T18:16:11.057Z,1.42
2023-03-05T18:18:38.747Z,0.98
2023-03-05T18:21:06.083Z,0.70
2023-03-05T18:23:33.299Z,0.80
2023-03-05T18:26:00.506Z,0.40
2023-03-05T18:28:27.938Z,2.30
2023-03-05T18:30:55.247Z,1.70
2023-03-05T18:33:23.410Z,1.20
2023-03-05T18:35:52.329Z,1.00
2023-03-05T18:38:20.530Z,0.90
2023-03-05T18:40:47.958Z,1.20
2023-03-05T18:43:17.152Z,2.30
2023-03-05T18:45:44.433Z,2.00
2023-03-05T18:48:11.705Z,1.60
2023-03-05T18:50:39.043Z,1.48
2023-03-05T18:53:06.274Z,3.50
2023-03-05T18:55:33.645Z,27.50
2023-03-05T18:58:00.985Z,26.08
2023-03-05T19:00:29.855Z,9.52
2023-03-05T19:02:57.223Z,5.40
2023-03-05T19:05:26.158Z,4.13
2023-03-05T19:07:53.490Z,1.90
2023-03-05T19:10:22.566Z,1.48
2023-03-05T19:12:57.696Z,1.10
2023-03-05T19:15:24.933Z,1.10
2023-03-05T19:17:52.199Z,1.10
2023-03-05T19:20:19.552Z,1.10
2023-03-05T19:22:46.831Z,1.30
2023-03-05T19:25:14.181Z,1.27
2023-03-05T19:27:41.444Z,1.52
2023-03-05T19:30:08.988Z,1.30
2023-03-05T19:32:36.326Z,1.13
2023-03-05T19:35:03.908Z,0.90
2023-03-05T19:37:31.752Z,1.02
2023-03-05T19:39:59.035Z,1.30
2023-03-05T19:42:26.479Z,1.33
2023-03-05T19:44:53.820Z,1.10
2023-03-05T19:47:21.098Z,1.08
2023-03-05T19:49:48.330Z,0.88
2023-03-05T19:52:15.599Z,1.20
2023-03-05T19:54:42.821Z,1.95
2023-03-05T19:57:10.100Z,1.48
2023-03-05T19:59:38.146Z,1.80
2023-03-05T20:02:05.334Z,0.98
2023-03-05T20:04:32.512Z,1.40
2023-03-05T20:06:59.814Z,0.93
2023-03-05T20:09:27.103Z,1.08
2023-03-05T20:11:54.414Z,1.10
2023-03-05T20:14:21.630Z,0.90
2023-03-05T20:16:48.860Z,0.95
2023-03-05T20:19:17.682Z,1.02
2023-03-05T20:21:45.188Z,1.00
2023-03-05T20:24:13.309Z,1.80
2023-03-05T20:26:40.878Z,1.15
2023-03-05T20:29:08.090Z,1.70
2023-03-05T20:31:36.860Z,0.88
2023-03-05T20:34:05.156Z,1.30
2023-03-05T20:36:32.454Z,1.23
2023-03-05T20:38:59.655Z,1.40
2023-03-05T20:41:26.902Z,1.33
2023-03-05T20:43:54.205Z,1.23
2023-03-05T20:46:25.548Z,1.92
2023-03-05T20:48:53.991Z,2.17
2023-03-05T20:51:22.826Z,1.48
2023-03-05T20:53:50.716Z,1.48
2023-03-05T20:56:17.955Z,1.02
2023-03-05T20:58:45.201Z,1.23
2023-03-05T21:01:12.564Z,1.00
2023-03-05T21:03:39.919Z,1.17
2023-03-05T21:06:07.298Z,1.08
2023-03-05T21:08:34.617Z,1.00
2023-03-05T21:11:05.028Z,1.75
2023-03-05T21:13:32.266Z,1.58
2023-03-05T21:15:59.571Z,1.27
2023-03-05T21:18:29.716Z,1.25
2023-03-05T21:20:56.938Z,1.80
2023-03-05T21:23:24.184Z,1.50
2023-03-05T21:25:51.505Z,1.70
2023-03-05T21:28:18.847Z,1.10
2023-03-05T21:30:49.789Z,1.30
2023-03-05T21:33:17.929Z,1.40
2023-03-05T21:35:45.467Z,1.17
2023-03-05T21:38:14.064Z,1.48
2023-03-05T21:40:43.855Z,1.70
2023-03-05T21:43:11.647Z,1.30
2023-03-05T21:45:38.896Z,1.30
2023-03-05T21:48:06.403Z,1.00
2023-03-05T21:50:33.737Z,1.45
2023-03-05T21:53:01.388Z,1.20
2023-03-05T21:55:33.101Z,1.20
2023-03-05T21:58:00.802Z,1.55
2023-03-05T22:00:28.304Z,1.25
2023-03-05T22:02:55.700Z,1.30
2023-03-05T22:05:23.010Z,1.35
2023-03-05T22:07:50.235Z,1.42
2023-03-05T22:10:18.080Z,1.05
2023-03-05T22:13:06.759Z,1.40
2023-03-05T22:15:34.201Z,1.50
2023-03-05T22:18:01.485Z,1.25
2023-03-05T22:20:28.763Z,1.23
2023-03-05T22:22:56.103Z,1.30
2023-03-05T22:25:23.457Z,1.40
2023-03-05T22:27:50.733Z,1.20
2023-03-05T22:30:18.017Z,1.20
2023-03-05T22:32:45.235Z,1.20
2023-03-05T22:35:13.144Z,1.75
2023-03-05T22:37:41.511Z,1.40
2023-03-05T22:40:09.746Z,1.48
2023-03-05T22:42:37.032Z,1.35
2023-03-05T22:45:04.340Z,1.38
2023-03-05T22:47:31.653Z,1.17
2023-03-05T22:49:59.198Z,1.23
2023-03-05T22:52:26.459Z,1.17
2023-03-05T22:54:55.940Z,1.20
2023-03-05T22:57:23.263Z,1.50
2023-03-05T22:59:50.534Z,1.40
2023-03-05T23:02:17.961Z,1.02
2023-03-05T23:04:57.770Z,1.20
2023-03-05T23:07:25.942Z,1.27
2023-03-05T23:10:03.497Z,1.48
2023-03-05T23:12:31.637Z,1.00
2023-03-05T23:15:02.192Z,1.20
2023-03-05T23:17:29.418Z,1.20
2023-03-05T23:19:56.740Z,1.30
2023-03-05T23:22:23.954Z,1.13
2023-03-05T23:24:51.176Z,1.38
2023-03-05T23:27:18.679Z,1.60
2023-03-05T23:30:15.971Z,1.08
2023-03-05T23:32:55.298Z,1.20
2023-03-05T23:35:29.335Z,1.38
2023-03-05T23:37:57.040Z,1.60
2023-03-05T23:40:28.571Z,1.33
2023-03-05T23:42:55.880Z,1.60
2023-03-05T23:45:23.381Z,1.35
2023-03-05T23:47:51.229Z,1.70
2023-03-05T23:50:19.519Z,1.50
2023-03-05T23:52:47.080Z,1.50
2023-03-05T23:55:21.323Z,1.77
2023-03-05T23:57:48.641Z,1.48
